BAW2005 EGLL-LTFM
Flight info
| Callsign | BAW2005 |
|---|---|
| Flight time | 3h 6m |
| Altitude | 41000 |
| Route | DET L6 DVR UL9 KONAN DCT KOK UL607 FERDI DCT MATUG DCT AMASI DCT BOMBI DCT TENLO DCT DEXIT DCT BEGLA DCT TEGRI DCT NEKUL DCT LAMIT DCT RASUB DCT BULEN DCT BUVAK DCT RIXEN |
| Aircraft | A359/H-SDE2E3GHIJ3J4J5LM1ORWXY/LB1D1 |
Departure
| Time | 2026-05-05 05:19 |
|---|---|
| Airport | London Heathrow Airport (EGLL) |
Arrival
| Time | 2026-05-05 08:26 |
|---|---|
| Airport | İstanbul Airport (LTFM) |
| Time | Latitude | Longitude | Altitude | Speed | Heading |
|---|---|---|---|---|---|
| 2026-05-05 05:02 | 51.47220 | -0.47725 | 85 ft | 0 kts | 90° |
| 2026-05-05 05:08 | 51.47220 | -0.47735 | 84 ft | 2 kts | 88° |
| 2026-05-05 05:08 | 51.47218 | -0.47758 | 84 ft | 2 kts | 76° |
| 2026-05-05 05:08 | 51.47213 | -0.47781 | 84 ft | 2 kts | 66° |
| 2026-05-05 05:08 | 51.47207 | -0.47802 | 83 ft | 2 kts | 58° |
| 2026-05-05 05:09 | 51.47198 | -0.47821 | 83 ft | 2 kts | 48° |
| 2026-05-05 05:09 | 51.47187 | -0.47838 | 83 ft | 2 kts | 39° |
| 2026-05-05 05:09 | 51.47176 | -0.47852 | 83 ft | 2 kts | 30° |
| 2026-05-05 05:09 | 51.47162 | -0.47862 | 83 ft | 2 kts | 20° |
| 2026-05-05 05:10 | 51.47148 | -0.47869 | 83 ft | 2 kts | 12° |
| 2026-05-05 05:10 | 51.47133 | -0.47873 | 83 ft | 2 kts | 2° |
| 2026-05-05 05:10 | 51.47129 | -0.47873 | 83 ft | 2 kts | 0° |
| 2026-05-05 05:11 | 51.47115 | -0.47872 | 84 ft | 2 kts | 359° |
| 2026-05-05 05:11 | 51.47109 | -0.47872 | 84 ft | 2 kts | 359° |
| 2026-05-05 05:11 | 51.47098 | -0.47872 | 84 ft | 2 kts | 0° |
| 2026-05-05 05:11 | 51.47095 | -0.47872 | 84 ft | 0 kts | 0° |
| 2026-05-05 05:13 | 51.47109 | -0.47872 | 84 ft | 9 kts | 0° |
| 2026-05-05 05:13 | 51.47240 | -0.47872 | 82 ft | 22 kts | 0° |
| 2026-05-05 05:13 | 51.47401 | -0.47873 | 84 ft | 23 kts | 0° |
| 2026-05-05 05:13 | 51.47512 | -0.47874 | 86 ft | 17 kts | 0° |
| 2026-05-05 05:14 | 51.47542 | -0.47870 | 86 ft | 7 kts | 15° |
| 2026-05-05 05:14 | 51.47577 | -0.47822 | 87 ft | 5 kts | 61° |
| 2026-05-05 05:14 | 51.47580 | -0.47757 | 87 ft | 6 kts | 91° |
| 2026-05-05 05:15 | 51.47580 | -0.47641 | 88 ft | 16 kts | 89° |
| 2026-05-05 05:15 | 51.47582 | -0.47398 | 89 ft | 27 kts | 90° |
| 2026-05-05 05:15 | 51.47583 | -0.47056 | 87 ft | 31 kts | 90° |
| 2026-05-05 05:15 | 51.47590 | -0.46711 | 84 ft | 28 kts | 88° |
| 2026-05-05 05:16 | 51.47594 | -0.46388 | 86 ft | 29 kts | 89° |
| 2026-05-05 05:16 | 51.47597 | -0.46050 | 87 ft | 30 kts | 90° |
| 2026-05-05 05:16 | 51.47594 | -0.45709 | 90 ft | 30 kts | 91° |
| 2026-05-05 05:16 | 51.47597 | -0.45367 | 93 ft | 30 kts | 88° |
| 2026-05-05 05:17 | 51.47599 | -0.45031 | 97 ft | 30 kts | 90° |
| 2026-05-05 05:17 | 51.47600 | -0.44684 | 96 ft | 31 kts | 91° |
| 2026-05-05 05:17 | 51.47599 | -0.44324 | 96 ft | 33 kts | 92° |
| 2026-05-05 05:17 | 51.47591 | -0.43957 | 89 ft | 24 kts | 89° |
| 2026-05-05 05:18 | 51.47651 | -0.43784 | 88 ft | 19 kts | 342° |
| 2026-05-05 05:18 | 51.47751 | -0.43898 | 91 ft | 17 kts | 298° |
| 2026-05-05 05:18 | 51.47769 | -0.44082 | 94 ft | 16 kts | 270° |
| 2026-05-05 05:18 | 51.47766 | -0.44311 | 95 ft | 43 kts | 270° |
| 2026-05-05 05:19 | 51.47761 | -0.45313 | 93 ft | 132 kts | 270° |
| 2026-05-05 05:19 | 51.47754 | -0.47157 | 174 ft | 192 kts | 271° |
| 2026-05-05 05:19 | 51.47732 | -0.49363 | 940 ft | 199 kts | 271° |
| 2026-05-05 05:19 | 51.47699 | -0.51454 | 1800 ft | 185 kts | 270° |
| 2026-05-05 05:20 | 51.47363 | -0.53489 | 2278 ft | 199 kts | 240° |
| 2026-05-05 05:20 | 51.46279 | -0.54927 | 2673 ft | 217 kts | 204° |
| 2026-05-05 05:20 | 51.44751 | -0.55210 | 3207 ft | 232 kts | 181° |
| 2026-05-05 05:20 | 51.43087 | -0.54864 | 3741 ft | 252 kts | 159° |
| 2026-05-05 05:21 | 51.41606 | -0.53273 | 4327 ft | 269 kts | 136° |
| 2026-05-05 05:21 | 51.40916 | -0.52145 | 4687 ft | 275 kts | 133° |
| 2026-05-05 05:21 | 51.40085 | -0.50659 | 5187 ft | 281 kts | 131° |
| 2026-05-05 05:22 | 51.38781 | -0.48302 | 5705 ft | 285 kts | 133° |
| 2026-05-05 05:22 | 51.37427 | -0.45962 | 5959 ft | 287 kts | 134° |
| 2026-05-05 05:22 | 51.36033 | -0.43649 | 5982 ft | 287 kts | 135° |
| 2026-05-05 05:22 | 51.34641 | -0.41392 | 5987 ft | 287 kts | 135° |
| 2026-05-05 05:23 | 51.33230 | -0.39124 | 5989 ft | 287 kts | 135° |
| 2026-05-05 05:23 | 51.32010 | -0.36635 | 5971 ft | 285 kts | 113° |
| 2026-05-05 05:23 | 51.31617 | -0.33574 | 5990 ft | 281 kts | 88° |
| 2026-05-05 05:23 | 51.31603 | -0.30468 | 5993 ft | 281 kts | 86° |
| 2026-05-05 05:24 | 51.31669 | -0.27344 | 5992 ft | 280 kts | 85° |
| 2026-05-05 05:24 | 51.31721 | -0.24226 | 5992 ft | 280 kts | 86° |
| 2026-05-05 05:24 | 51.31730 | -0.21158 | 5992 ft | 279 kts | 88° |
| 2026-05-05 05:24 | 51.31708 | -0.18021 | 5992 ft | 279 kts | 88° |
| 2026-05-05 05:25 | 51.31672 | -0.14938 | 5992 ft | 278 kts | 88° |
| 2026-05-05 05:25 | 51.31630 | -0.11842 | 5991 ft | 277 kts | 88° |
| 2026-05-05 05:25 | 51.31585 | -0.08761 | 5992 ft | 276 kts | 88° |
| 2026-05-05 05:25 | 51.31541 | -0.05688 | 5991 ft | 275 kts | 88° |
| 2026-05-05 05:26 | 51.31495 | -0.02629 | 5991 ft | 274 kts | 88° |
| 2026-05-05 05:26 | 51.31450 | 0.00377 | 5992 ft | 273 kts | 88° |
| 2026-05-05 05:26 | 51.31405 | 0.03405 | 5991 ft | 273 kts | 88° |
| 2026-05-05 05:26 | 51.31358 | 0.06445 | 5991 ft | 273 kts | 88° |
| 2026-05-05 05:27 | 51.31310 | 0.09488 | 5991 ft | 273 kts | 88° |
| 2026-05-05 05:27 | 51.31262 | 0.12510 | 5991 ft | 273 kts | 88° |
| 2026-05-05 05:27 | 51.31163 | 0.18577 | 5991 ft | 273 kts | 88° |
| 2026-05-05 05:28 | 51.31112 | 0.21607 | 5991 ft | 273 kts | 88° |
| 2026-05-05 05:28 | 51.31060 | 0.24664 | 5991 ft | 273 kts | 88° |
| 2026-05-05 05:28 | 51.31008 | 0.27670 | 5991 ft | 273 kts | 88° |
| 2026-05-05 05:28 | 51.30955 | 0.30721 | 5991 ft | 273 kts | 88° |
| 2026-05-05 05:29 | 51.30901 | 0.33730 | 5991 ft | 273 kts | 88° |
| 2026-05-05 05:29 | 51.30846 | 0.36753 | 5991 ft | 273 kts | 88° |
| 2026-05-05 05:29 | 51.30789 | 0.39819 | 5991 ft | 274 kts | 88° |
| 2026-05-05 05:29 | 51.30732 | 0.42846 | 5991 ft | 274 kts | 88° |
| 2026-05-05 05:30 | 51.30676 | 0.45879 | 5991 ft | 274 kts | 88° |
| 2026-05-05 05:30 | 51.30617 | 0.48938 | 5991 ft | 274 kts | 88° |
| 2026-05-05 05:30 | 51.30558 | 0.51988 | 5991 ft | 275 kts | 88° |
| 2026-05-05 05:30 | 51.30498 | 0.55030 | 5991 ft | 275 kts | 88° |
| 2026-05-05 05:31 | 51.30417 | 0.58080 | 5990 ft | 277 kts | 91° |
| 2026-05-05 05:31 | 51.30133 | 0.61142 | 6004 ft | 282 kts | 99° |
| 2026-05-05 05:31 | 51.29624 | 0.64223 | 6425 ft | 291 kts | 103° |
| 2026-05-05 05:31 | 51.29055 | 0.67335 | 7381 ft | 294 kts | 105° |
| 2026-05-05 05:32 | 51.28478 | 0.70457 | 8261 ft | 299 kts | 105° |
| 2026-05-05 05:32 | 51.27891 | 0.73634 | 9075 ft | 305 kts | 107° |
| 2026-05-05 05:32 | 51.27291 | 0.76892 | 9898 ft | 311 kts | 107° |
| 2026-05-05 05:32 | 51.26672 | 0.80248 | 10640 ft | 319 kts | 108° |
| 2026-05-05 05:33 | 51.26028 | 0.83726 | 11151 ft | 336 kts | 109° |
| 2026-05-05 05:33 | 51.25352 | 0.87367 | 11629 ft | 353 kts | 109° |
| 2026-05-05 05:33 | 51.24637 | 0.91210 | 12079 ft | 369 kts | 109° |
| 2026-05-05 05:33 | 51.23890 | 0.95220 | 12492 ft | 386 kts | 109° |
| 2026-05-05 05:34 | 51.23111 | 0.99398 | 12946 ft | 401 kts | 109° |
| 2026-05-05 05:34 | 51.22316 | 1.03669 | 13614 ft | 408 kts | 109° |
| 2026-05-05 05:34 | 51.21511 | 1.07999 | 14337 ft | 412 kts | 110° |
| 2026-05-05 05:34 | 51.20686 | 1.12424 | 15036 ft | 417 kts | 110° |
| 2026-05-05 05:35 | 51.19865 | 1.16818 | 15698 ft | 422 kts | 110° |
| 2026-05-05 05:35 | 51.19014 | 1.21345 | 16362 ft | 427 kts | 110° |
| 2026-05-05 05:35 | 51.18165 | 1.25851 | 16991 ft | 432 kts | 111° |
| 2026-05-05 05:35 | 51.17292 | 1.30500 | 17599 ft | 438 kts | 110° |
| 2026-05-05 05:36 | 51.16556 | 1.35210 | 18176 ft | 446 kts | 105° |
| 2026-05-05 05:36 | 51.16046 | 1.40115 | 18743 ft | 455 kts | 100° |
| 2026-05-05 05:36 | 51.15751 | 1.45139 | 19302 ft | 461 kts | 97° |
| 2026-05-05 05:36 | 51.15518 | 1.50284 | 19851 ft | 467 kts | 97° |
| 2026-05-05 05:37 | 51.15295 | 1.55444 | 20382 ft | 473 kts | 97° |
| 2026-05-05 05:37 | 51.15059 | 1.60688 | 20903 ft | 479 kts | 97° |
| 2026-05-05 05:37 | 51.14808 | 1.66022 | 21416 ft | 484 kts | 98° |
| 2026-05-05 05:37 | 51.14548 | 1.71390 | 21910 ft | 489 kts | 98° |
| 2026-05-05 05:38 | 51.14278 | 1.76821 | 22399 ft | 494 kts | 98° |
| 2026-05-05 05:38 | 51.14001 | 1.82283 | 22873 ft | 500 kts | 98° |
| 2026-05-05 05:38 | 51.13721 | 1.87757 | 23332 ft | 505 kts | 98° |
| 2026-05-05 05:38 | 51.13431 | 1.93355 | 23785 ft | 509 kts | 98° |
| 2026-05-05 05:39 | 51.13136 | 1.98995 | 24225 ft | 514 kts | 98° |
| 2026-05-05 05:39 | 51.12838 | 2.04678 | 24651 ft | 519 kts | 98° |
| 2026-05-05 05:39 | 51.12533 | 2.10433 | 25067 ft | 524 kts | 98° |
| 2026-05-05 05:39 | 51.12223 | 2.16222 | 25469 ft | 528 kts | 98° |
| 2026-05-05 05:40 | 51.11905 | 2.22087 | 25861 ft | 533 kts | 98° |
| 2026-05-05 05:40 | 51.11585 | 2.27941 | 26238 ft | 537 kts | 99° |
| 2026-05-05 05:40 | 51.11254 | 2.33920 | 26610 ft | 541 kts | 99° |
| 2026-05-05 05:40 | 51.10923 | 2.39872 | 26966 ft | 545 kts | 99° |
| 2026-05-05 05:41 | 51.10585 | 2.45862 | 27314 ft | 549 kts | 99° |
| 2026-05-05 05:41 | 51.10242 | 2.51889 | 27650 ft | 553 kts | 99° |
| 2026-05-05 05:41 | 51.09874 | 2.58014 | 27982 ft | 556 kts | 100° |
| 2026-05-05 05:41 | 51.09341 | 2.64077 | 28307 ft | 557 kts | 104° |
| 2026-05-05 05:42 | 51.08575 | 2.70127 | 28613 ft | 558 kts | 109° |
| 2026-05-05 05:42 | 51.07587 | 2.76073 | 28916 ft | 558 kts | 112° |
| 2026-05-05 05:42 | 51.06493 | 2.82054 | 29207 ft | 561 kts | 113° |
| 2026-05-05 05:42 | 51.05381 | 2.88001 | 29481 ft | 564 kts | 113° |
| 2026-05-05 05:43 | 51.04271 | 2.93932 | 29739 ft | 568 kts | 112° |
| 2026-05-05 05:43 | 51.03140 | 2.99995 | 30013 ft | 571 kts | 112° |
| 2026-05-05 05:43 | 51.02028 | 3.05990 | 30360 ft | 572 kts | 111° |
| 2026-05-05 05:43 | 51.00917 | 3.12002 | 30731 ft | 572 kts | 111° |
| 2026-05-05 05:44 | 50.99792 | 3.18101 | 31115 ft | 573 kts | 111° |
| 2026-05-05 05:44 | 50.98682 | 3.24116 | 31508 ft | 572 kts | 110° |
| 2026-05-05 05:44 | 50.97561 | 3.30169 | 31915 ft | 571 kts | 110° |
| 2026-05-05 05:44 | 50.96447 | 3.36163 | 32319 ft | 571 kts | 110° |
| 2026-05-05 05:45 | 50.95316 | 3.42211 | 32725 ft | 570 kts | 110° |
| 2026-05-05 05:45 | 50.94199 | 3.48169 | 33124 ft | 569 kts | 110° |
| 2026-05-05 05:45 | 50.93063 | 3.54203 | 33526 ft | 568 kts | 110° |
| 2026-05-05 05:45 | 50.91940 | 3.60143 | 33920 ft | 566 kts | 110° |
| 2026-05-05 05:46 | 50.90810 | 3.66179 | 34318 ft | 565 kts | 110° |
| 2026-05-05 05:46 | 50.89771 | 3.72181 | 34713 ft | 564 kts | 108° |
| 2026-05-05 05:46 | 50.88772 | 3.78094 | 35119 ft | 561 kts | 108° |
| 2026-05-05 05:46 | 50.87766 | 3.84052 | 35522 ft | 558 kts | 108° |
| 2026-05-05 05:47 | 50.86767 | 3.89953 | 35893 ft | 556 kts | 108° |
| 2026-05-05 05:47 | 50.85767 | 3.95829 | 36214 ft | 555 kts | 108° |
| 2026-05-05 05:47 | 50.84756 | 4.01745 | 36499 ft | 555 kts | 108° |
| 2026-05-05 05:47 | 50.83740 | 4.07656 | 36759 ft | 555 kts | 108° |
| 2026-05-05 05:48 | 50.82736 | 4.13478 | 37006 ft | 555 kts | 108° |
| 2026-05-05 05:48 | 50.81714 | 4.19379 | 37252 ft | 555 kts | 108° |
| 2026-05-05 05:48 | 50.80701 | 4.25209 | 37491 ft | 555 kts | 108° |
| 2026-05-05 05:48 | 50.79682 | 4.31056 | 37726 ft | 555 kts | 108° |
| 2026-05-05 05:49 | 50.78641 | 4.37003 | 37961 ft | 555 kts | 108° |
| 2026-05-05 05:49 | 50.77622 | 4.42812 | 38184 ft | 555 kts | 108° |
| 2026-05-05 05:49 | 50.76594 | 4.48654 | 38404 ft | 555 kts | 108° |
| 2026-05-05 05:49 | 50.75554 | 4.54543 | 38620 ft | 555 kts | 108° |
| 2026-05-05 05:50 | 50.74521 | 4.60371 | 38829 ft | 555 kts | 108° |
| 2026-05-05 05:50 | 50.73480 | 4.66228 | 39031 ft | 555 kts | 109° |
| 2026-05-05 05:50 | 50.72428 | 4.72152 | 39198 ft | 556 kts | 109° |
| 2026-05-05 05:50 | 50.71392 | 4.77961 | 39341 ft | 556 kts | 109° |
| 2026-05-05 05:51 | 50.70338 | 4.83843 | 39474 ft | 557 kts | 109° |
| 2026-05-05 05:51 | 50.69280 | 4.89710 | 39603 ft | 558 kts | 109° |
| 2026-05-05 05:51 | 50.68225 | 4.95536 | 39733 ft | 559 kts | 108° |
| 2026-05-05 05:51 | 50.67151 | 5.01453 | 39866 ft | 559 kts | 108° |
| 2026-05-05 05:52 | 50.66092 | 5.07275 | 39995 ft | 560 kts | 108° |
| 2026-05-05 05:52 | 50.65007 | 5.13234 | 40123 ft | 560 kts | 108° |
| 2026-05-05 05:52 | 50.63949 | 5.19043 | 40250 ft | 561 kts | 108° |
| 2026-05-05 05:52 | 50.62864 | 5.24956 | 40373 ft | 561 kts | 108° |
| 2026-05-05 05:53 | 50.61773 | 5.30874 | 40485 ft | 562 kts | 108° |
| 2026-05-05 05:53 | 50.60688 | 5.36744 | 40591 ft | 562 kts | 108° |
| 2026-05-05 05:53 | 50.59591 | 5.42659 | 40695 ft | 563 kts | 108° |
| 2026-05-05 05:53 | 50.58492 | 5.48568 | 40797 ft | 564 kts | 108° |
| 2026-05-05 05:54 | 50.56278 | 5.60414 | 40897 ft | 565 kts | 108° |
| 2026-05-05 05:54 | 50.54062 | 5.72226 | 40900 ft | 566 kts | 109° |
| 2026-05-05 05:55 | 50.51826 | 5.84080 | 40903 ft | 565 kts | 109° |
| 2026-05-05 05:55 | 50.49586 | 5.95857 | 40899 ft | 565 kts | 109° |
| 2026-05-05 05:56 | 50.47328 | 6.07651 | 40894 ft | 565 kts | 109° |
| 2026-05-05 05:56 | 50.45065 | 6.19405 | 40889 ft | 566 kts | 109° |
| 2026-05-05 05:57 | 50.42771 | 6.31239 | 40883 ft | 566 kts | 109° |
| 2026-05-05 05:57 | 50.40768 | 6.43086 | 40880 ft | 567 kts | 104° |
| 2026-05-05 05:58 | 50.39104 | 6.55164 | 40878 ft | 567 kts | 103° |
| 2026-05-05 05:58 | 50.37454 | 6.67239 | 40874 ft | 567 kts | 104° |
| 2026-05-05 05:59 | 50.35780 | 6.79298 | 40877 ft | 567 kts | 104° |
| 2026-05-05 05:59 | 50.34082 | 6.91331 | 40877 ft | 567 kts | 104° |
| 2026-05-05 06:00 | 50.32367 | 7.03349 | 40877 ft | 568 kts | 104° |
| 2026-05-05 06:00 | 50.30629 | 7.15400 | 40877 ft | 570 kts | 103° |
| 2026-05-05 06:01 | 50.28887 | 7.27438 | 40877 ft | 572 kts | 103° |
| 2026-05-05 06:01 | 50.27129 | 7.39553 | 40882 ft | 572 kts | 103° |
| 2026-05-05 06:02 | 50.25357 | 7.51638 | 40890 ft | 572 kts | 103° |
| 2026-05-05 06:02 | 50.23567 | 7.63707 | 40898 ft | 572 kts | 103° |
| 2026-05-05 06:03 | 50.21772 | 7.75777 | 40900 ft | 572 kts | 103° |
| 2026-05-05 06:03 | 50.19962 | 7.87859 | 40902 ft | 572 kts | 103° |
| 2026-05-05 06:04 | 50.18137 | 7.99931 | 40901 ft | 572 kts | 103° |
| 2026-05-05 06:04 | 50.16309 | 8.11928 | 40901 ft | 572 kts | 103° |
| 2026-05-05 06:05 | 50.14460 | 8.23976 | 40901 ft | 572 kts | 103° |
| 2026-05-05 06:05 | 50.12600 | 8.36000 | 40901 ft | 572 kts | 103° |
| 2026-05-05 06:06 | 50.10737 | 8.47960 | 40901 ft | 572 kts | 103° |
| 2026-05-05 06:06 | 50.08847 | 8.60001 | 40895 ft | 572 kts | 103° |
| 2026-05-05 06:07 | 50.06953 | 8.71994 | 40885 ft | 572 kts | 104° |
| 2026-05-05 06:07 | 50.04831 | 8.83928 | 40881 ft | 571 kts | 109° |
| 2026-05-05 06:08 | 50.02220 | 8.95585 | 40878 ft | 572 kts | 110° |
| 2026-05-05 06:08 | 49.99556 | 9.07152 | 40877 ft | 574 kts | 109° |
| 2026-05-05 06:09 | 49.96875 | 9.18853 | 40877 ft | 576 kts | 109° |
| 2026-05-05 06:09 | 49.94208 | 9.30516 | 40878 ft | 576 kts | 109° |
| 2026-05-05 06:10 | 49.91511 | 9.42255 | 40879 ft | 576 kts | 109° |
| 2026-05-05 06:10 | 49.88807 | 9.53903 | 40876 ft | 576 kts | 109° |
| 2026-05-05 06:11 | 49.86068 | 9.65526 | 40876 ft | 576 kts | 110° |
| 2026-05-05 06:11 | 49.83342 | 9.77134 | 40877 ft | 576 kts | 109° |
| 2026-05-05 06:12 | 49.80595 | 9.88823 | 40877 ft | 576 kts | 109° |
| 2026-05-05 06:12 | 49.77860 | 10.00390 | 40878 ft | 576 kts | 109° |
| 2026-05-05 06:13 | 49.75104 | 10.11976 | 40877 ft | 576 kts | 109° |
| 2026-05-05 06:13 | 49.72326 | 10.23595 | 40876 ft | 576 kts | 109° |
| 2026-05-05 06:14 | 49.69539 | 10.35189 | 40875 ft | 576 kts | 109° |
| 2026-05-05 06:14 | 49.66756 | 10.46708 | 40874 ft | 575 kts | 109° |
| 2026-05-05 06:15 | 49.63959 | 10.58220 | 40874 ft | 575 kts | 109° |
| 2026-05-05 06:15 | 49.61143 | 10.69774 | 40872 ft | 576 kts | 110° |
| 2026-05-05 06:16 | 49.58329 | 10.81278 | 40874 ft | 576 kts | 110° |
| 2026-05-05 06:16 | 49.55474 | 10.92834 | 40876 ft | 575 kts | 109° |
| 2026-05-05 06:17 | 49.52629 | 11.04293 | 40878 ft | 574 kts | 109° |
| 2026-05-05 06:17 | 49.49636 | 11.15581 | 40878 ft | 574 kts | 110° |
| 2026-05-05 06:18 | 49.46534 | 11.26833 | 40878 ft | 574 kts | 110° |
| 2026-05-05 06:18 | 49.43421 | 11.38120 | 40877 ft | 573 kts | 110° |
| 2026-05-05 06:19 | 49.40327 | 11.49342 | 40876 ft | 573 kts | 110° |
| 2026-05-05 06:19 | 49.37226 | 11.60553 | 40875 ft | 573 kts | 110° |
| 2026-05-05 06:20 | 49.34103 | 11.71812 | 40872 ft | 574 kts | 111° |
| 2026-05-05 06:20 | 49.30991 | 11.82986 | 40873 ft | 574 kts | 111° |
| 2026-05-05 06:21 | 49.27840 | 11.94227 | 40872 ft | 574 kts | 111° |
| 2026-05-05 06:21 | 49.24688 | 12.05412 | 40872 ft | 574 kts | 111° |
| 2026-05-05 06:22 | 49.21536 | 12.16544 | 40872 ft | 574 kts | 111° |
| 2026-05-05 06:22 | 49.18348 | 12.27747 | 40872 ft | 574 kts | 111° |
| 2026-05-05 06:23 | 49.15186 | 12.38810 | 40873 ft | 574 kts | 111° |
| 2026-05-05 06:23 | 49.11978 | 12.49980 | 40873 ft | 574 kts | 111° |
| 2026-05-05 06:24 | 49.08765 | 12.61108 | 40874 ft | 572 kts | 111° |
| 2026-05-05 06:24 | 49.05570 | 12.72136 | 40873 ft | 570 kts | 111° |
| 2026-05-05 06:25 | 49.02388 | 12.83089 | 40876 ft | 568 kts | 111° |
| 2026-05-05 06:25 | 48.99182 | 12.94056 | 40876 ft | 565 kts | 110° |
| 2026-05-05 06:26 | 48.95980 | 13.04943 | 40877 ft | 562 kts | 109° |
| 2026-05-05 06:26 | 48.92807 | 13.15682 | 40877 ft | 560 kts | 109° |
| 2026-05-05 06:27 | 48.88005 | 13.31844 | 40873 ft | 558 kts | 108° |
| 2026-05-05 06:28 | 48.84801 | 13.42509 | 40875 ft | 558 kts | 108° |
| 2026-05-05 06:28 | 48.81592 | 13.53210 | 40875 ft | 558 kts | 108° |
| 2026-05-05 06:29 | 48.78394 | 13.63854 | 40875 ft | 558 kts | 108° |
| 2026-05-05 06:29 | 48.75303 | 13.74603 | 40875 ft | 555 kts | 105° |
| 2026-05-05 06:30 | 48.72516 | 13.85463 | 40875 ft | 554 kts | 105° |
| 2026-05-05 06:30 | 48.69746 | 13.96334 | 40875 ft | 555 kts | 105° |
| 2026-05-05 06:31 | 48.66960 | 14.07181 | 40876 ft | 555 kts | 105° |
| 2026-05-05 06:31 | 48.64159 | 14.18010 | 40875 ft | 555 kts | 105° |
| 2026-05-05 06:32 | 48.61351 | 14.28813 | 40875 ft | 555 kts | 105° |
| 2026-05-05 06:32 | 48.58520 | 14.39650 | 40875 ft | 555 kts | 105° |
| 2026-05-05 06:33 | 48.55685 | 14.50450 | 40875 ft | 554 kts | 105° |
| 2026-05-05 06:33 | 48.52831 | 14.61274 | 40875 ft | 555 kts | 105° |
| 2026-05-05 06:34 | 48.49984 | 14.72042 | 40873 ft | 555 kts | 105° |
| 2026-05-05 06:34 | 48.47127 | 14.82798 | 40875 ft | 555 kts | 105° |
| 2026-05-05 06:35 | 48.44249 | 14.93555 | 40875 ft | 556 kts | 105° |
| 2026-05-05 06:35 | 48.41352 | 15.04306 | 40875 ft | 557 kts | 104° |
| 2026-05-05 06:36 | 48.38433 | 15.15111 | 40876 ft | 558 kts | 103° |
| 2026-05-05 06:36 | 48.35516 | 15.25897 | 40876 ft | 558 kts | 103° |
| 2026-05-05 06:37 | 48.32582 | 15.36693 | 40876 ft | 558 kts | 103° |
| 2026-05-05 06:37 | 48.29663 | 15.47369 | 40877 ft | 558 kts | 103° |
| 2026-05-05 06:38 | 48.26708 | 15.58119 | 40880 ft | 558 kts | 103° |
| 2026-05-05 06:38 | 48.23735 | 15.68896 | 40878 ft | 558 kts | 104° |
| 2026-05-05 06:39 | 48.20770 | 15.79609 | 40877 ft | 558 kts | 104° |
| 2026-05-05 06:39 | 48.17800 | 15.90274 | 40877 ft | 558 kts | 104° |
| 2026-05-05 06:40 | 48.14806 | 16.00977 | 40877 ft | 558 kts | 104° |
| 2026-05-05 06:40 | 48.11789 | 16.11708 | 40877 ft | 558 kts | 104° |
| 2026-05-05 06:41 | 48.08774 | 16.22388 | 40878 ft | 558 kts | 104° |
| 2026-05-05 06:41 | 48.06107 | 16.31793 | 40878 ft | 558 kts | 104° |
| 2026-05-05 06:42 | 48.03086 | 16.42404 | 40878 ft | 558 kts | 104° |
| 2026-05-05 06:42 | 48.00024 | 16.53109 | 40878 ft | 558 kts | 104° |
| 2026-05-05 06:43 | 47.96982 | 16.63700 | 40879 ft | 558 kts | 104° |
| 2026-05-05 06:43 | 47.93900 | 16.74400 | 40877 ft | 559 kts | 105° |
| 2026-05-05 06:44 | 47.90830 | 16.85010 | 40879 ft | 558 kts | 105° |
| 2026-05-05 06:44 | 47.87763 | 16.95496 | 40883 ft | 549 kts | 107° |
| 2026-05-05 06:45 | 47.84734 | 17.05776 | 40892 ft | 539 kts | 107° |
| 2026-05-05 06:45 | 47.81507 | 17.15762 | 40897 ft | 541 kts | 112° |
| 2026-05-05 06:46 | 47.77908 | 17.25571 | 40904 ft | 541 kts | 113° |
| 2026-05-05 06:46 | 47.74287 | 17.35377 | 40911 ft | 541 kts | 113° |
| 2026-05-05 06:47 | 47.70698 | 17.45086 | 40926 ft | 540 kts | 112° |
| 2026-05-05 06:47 | 47.67091 | 17.54837 | 40940 ft | 541 kts | 113° |
| 2026-05-05 06:48 | 47.63467 | 17.64601 | 40951 ft | 541 kts | 113° |
| 2026-05-05 06:48 | 47.59837 | 17.74366 | 40953 ft | 541 kts | 113° |
| 2026-05-05 06:49 | 47.56210 | 17.84086 | 40955 ft | 541 kts | 114° |
| 2026-05-05 06:49 | 47.52566 | 17.93809 | 40956 ft | 541 kts | 114° |
| 2026-05-05 06:50 | 47.48924 | 18.03481 | 40956 ft | 541 kts | 114° |
| 2026-05-05 06:50 | 47.45260 | 18.13173 | 40955 ft | 541 kts | 114° |
| 2026-05-05 06:51 | 47.41576 | 18.22879 | 40957 ft | 541 kts | 114° |
| 2026-05-05 06:51 | 47.37915 | 18.32496 | 40956 ft | 541 kts | 114° |
| 2026-05-05 06:52 | 47.34230 | 18.42141 | 40956 ft | 541 kts | 114° |
| 2026-05-05 06:52 | 47.30538 | 18.51777 | 40960 ft | 542 kts | 114° |
| 2026-05-05 06:53 | 47.26817 | 18.61438 | 40977 ft | 543 kts | 114° |
| 2026-05-05 06:53 | 47.23112 | 18.71035 | 40993 ft | 544 kts | 115° |
| 2026-05-05 06:54 | 47.19373 | 18.80701 | 41004 ft | 544 kts | 115° |
| 2026-05-05 06:54 | 47.15628 | 18.90336 | 41008 ft | 544 kts | 115° |
| 2026-05-05 06:55 | 47.11864 | 18.99985 | 41012 ft | 543 kts | 115° |
| 2026-05-05 06:55 | 47.08148 | 19.09489 | 41015 ft | 535 kts | 116° |
| 2026-05-05 06:56 | 47.04476 | 19.18833 | 41015 ft | 526 kts | 117° |
| 2026-05-05 06:56 | 47.00842 | 19.28035 | 41014 ft | 520 kts | 117° |
| 2026-05-05 06:57 | 46.97239 | 19.37120 | 41021 ft | 519 kts | 117° |
| 2026-05-05 06:57 | 46.93615 | 19.46241 | 41029 ft | 519 kts | 117° |
| 2026-05-05 06:58 | 46.89986 | 19.55350 | 41036 ft | 519 kts | 117° |
| 2026-05-05 06:58 | 46.86340 | 19.64398 | 41037 ft | 519 kts | 117° |
| 2026-05-05 06:59 | 46.82674 | 19.73501 | 41039 ft | 519 kts | 117° |
| 2026-05-05 06:59 | 46.79037 | 19.82539 | 41040 ft | 519 kts | 117° |
| 2026-05-05 07:00 | 46.75373 | 19.91615 | 41040 ft | 519 kts | 117° |
| 2026-05-05 07:00 | 46.71723 | 20.00625 | 41040 ft | 519 kts | 117° |
| 2026-05-05 07:01 | 46.68062 | 20.09631 | 41040 ft | 519 kts | 117° |
| 2026-05-05 07:01 | 46.64393 | 20.18628 | 41040 ft | 519 kts | 117° |
| 2026-05-05 07:02 | 46.60708 | 20.27634 | 41040 ft | 519 kts | 117° |
| 2026-05-05 07:02 | 46.57020 | 20.36618 | 41040 ft | 519 kts | 117° |
| 2026-05-05 07:03 | 46.53318 | 20.45608 | 41040 ft | 519 kts | 117° |
| 2026-05-05 07:03 | 46.49615 | 20.54571 | 41041 ft | 519 kts | 117° |
| 2026-05-05 07:04 | 46.45902 | 20.63530 | 41045 ft | 519 kts | 117° |
| 2026-05-05 07:04 | 46.42191 | 20.72476 | 41052 ft | 519 kts | 118° |
| 2026-05-05 07:05 | 46.38476 | 20.81404 | 41060 ft | 519 kts | 118° |
| 2026-05-05 07:05 | 46.34761 | 20.90290 | 41064 ft | 519 kts | 118° |
| 2026-05-05 07:06 | 46.31028 | 20.99202 | 41067 ft | 517 kts | 119° |
| 2026-05-05 07:06 | 46.27307 | 21.08031 | 41066 ft | 513 kts | 121° |
| 2026-05-05 07:07 | 46.23351 | 21.16458 | 41065 ft | 509 kts | 124° |
| 2026-05-05 07:07 | 46.19259 | 21.24748 | 41064 ft | 509 kts | 124° |
| 2026-05-05 07:08 | 46.15144 | 21.33067 | 41066 ft | 509 kts | 124° |
| 2026-05-05 07:08 | 46.11076 | 21.41280 | 41064 ft | 508 kts | 124° |
| 2026-05-05 07:09 | 46.06951 | 21.49590 | 41066 ft | 509 kts | 124° |
| 2026-05-05 07:09 | 46.02863 | 21.57804 | 41066 ft | 508 kts | 124° |
| 2026-05-05 07:10 | 45.98757 | 21.66033 | 41065 ft | 508 kts | 125° |
| 2026-05-05 07:10 | 45.94631 | 21.74301 | 41065 ft | 508 kts | 125° |
| 2026-05-05 07:11 | 45.90528 | 21.82490 | 41065 ft | 508 kts | 125° |
| 2026-05-05 07:11 | 45.86386 | 21.90678 | 41066 ft | 509 kts | 126° |
| 2026-05-05 07:12 | 45.82209 | 21.98901 | 41066 ft | 509 kts | 125° |
| 2026-05-05 07:12 | 45.78073 | 22.07051 | 41067 ft | 509 kts | 125° |
| 2026-05-05 07:13 | 45.73908 | 22.15250 | 41064 ft | 509 kts | 125° |
| 2026-05-05 07:13 | 45.69769 | 22.23378 | 41067 ft | 509 kts | 125° |
| 2026-05-05 07:14 | 45.65601 | 22.31541 | 41066 ft | 508 kts | 125° |
| 2026-05-05 07:14 | 45.61447 | 22.39651 | 41064 ft | 508 kts | 125° |
| 2026-05-05 07:15 | 45.57295 | 22.47742 | 41066 ft | 508 kts | 125° |
| 2026-05-05 07:15 | 45.53095 | 22.55901 | 41064 ft | 509 kts | 125° |
| 2026-05-05 07:16 | 45.48911 | 22.63986 | 41068 ft | 508 kts | 125° |
| 2026-05-05 07:16 | 45.44740 | 22.72033 | 41071 ft | 509 kts | 126° |
| 2026-05-05 07:17 | 45.40522 | 22.80165 | 41081 ft | 509 kts | 126° |
| 2026-05-05 07:17 | 45.36349 | 22.88194 | 41086 ft | 509 kts | 127° |
| 2026-05-05 07:18 | 45.32127 | 22.96290 | 41094 ft | 508 kts | 129° |
| 2026-05-05 07:18 | 45.27934 | 23.04292 | 41094 ft | 502 kts | 130° |
| 2026-05-05 07:19 | 45.23793 | 23.12144 | 41090 ft | 499 kts | 130° |
| 2026-05-05 07:19 | 45.19643 | 23.19993 | 41088 ft | 498 kts | 130° |
| 2026-05-05 07:20 | 45.15502 | 23.27826 | 41081 ft | 498 kts | 130° |
| 2026-05-05 07:20 | 45.11359 | 23.35642 | 41079 ft | 499 kts | 130° |
| 2026-05-05 07:21 | 45.07164 | 23.43521 | 41078 ft | 503 kts | 129° |
| 2026-05-05 07:21 | 45.02953 | 23.51410 | 41079 ft | 504 kts | 129° |
| 2026-05-05 07:22 | 44.98738 | 23.59295 | 41077 ft | 503 kts | 129° |
| 2026-05-05 07:22 | 44.94538 | 23.67135 | 41072 ft | 502 kts | 130° |
| 2026-05-05 07:23 | 44.90343 | 23.74975 | 41070 ft | 502 kts | 129° |
| 2026-05-05 07:23 | 44.86147 | 23.82745 | 41068 ft | 501 kts | 130° |
| 2026-05-05 07:24 | 44.81929 | 23.90511 | 41068 ft | 501 kts | 129° |
| 2026-05-05 07:24 | 44.77697 | 23.98307 | 41068 ft | 501 kts | 129° |
| 2026-05-05 07:25 | 44.73489 | 24.06050 | 41065 ft | 501 kts | 129° |
| 2026-05-05 07:25 | 44.69264 | 24.13805 | 41068 ft | 501 kts | 130° |
| 2026-05-05 07:26 | 44.65024 | 24.21566 | 41067 ft | 502 kts | 129° |
| 2026-05-05 07:26 | 44.60785 | 24.29306 | 41063 ft | 502 kts | 130° |
| 2026-05-05 07:27 | 44.56535 | 24.37045 | 41066 ft | 501 kts | 130° |
| 2026-05-05 07:27 | 44.52288 | 24.44757 | 41065 ft | 501 kts | 130° |
| 2026-05-05 07:28 | 44.48027 | 24.52475 | 41068 ft | 501 kts | 130° |
| 2026-05-05 07:28 | 44.43780 | 24.60149 | 41065 ft | 501 kts | 129° |
| 2026-05-05 07:29 | 44.39530 | 24.67812 | 41065 ft | 501 kts | 130° |
| 2026-05-05 07:29 | 44.35256 | 24.75522 | 41067 ft | 502 kts | 130° |
| 2026-05-05 07:30 | 44.31005 | 24.83159 | 41066 ft | 501 kts | 130° |
| 2026-05-05 07:30 | 44.24575 | 24.94647 | 41065 ft | 502 kts | 130° |
| 2026-05-05 07:31 | 44.20295 | 25.02265 | 41066 ft | 501 kts | 130° |
| 2026-05-05 07:31 | 44.16017 | 25.09859 | 41066 ft | 500 kts | 130° |
| 2026-05-05 07:32 | 44.11719 | 25.17474 | 41069 ft | 501 kts | 130° |
| 2026-05-05 07:32 | 44.07409 | 25.25089 | 41066 ft | 500 kts | 130° |
| 2026-05-05 07:33 | 44.03140 | 25.32614 | 41064 ft | 500 kts | 130° |
| 2026-05-05 07:33 | 43.98834 | 25.40186 | 41063 ft | 500 kts | 130° |
| 2026-05-05 07:34 | 43.94520 | 25.47739 | 41067 ft | 500 kts | 130° |
| 2026-05-05 07:34 | 43.90213 | 25.55265 | 41069 ft | 499 kts | 130° |
| 2026-05-05 07:35 | 43.85875 | 25.62787 | 41067 ft | 500 kts | 130° |
| 2026-05-05 07:35 | 43.81534 | 25.70316 | 41067 ft | 500 kts | 130° |
| 2026-05-05 07:36 | 43.77240 | 25.77782 | 41065 ft | 500 kts | 130° |
| 2026-05-05 07:36 | 43.73193 | 25.85573 | 41063 ft | 501 kts | 124° |
| 2026-05-05 07:37 | 43.69472 | 25.93696 | 41066 ft | 502 kts | 124° |
| 2026-05-05 07:37 | 43.65751 | 26.01836 | 41066 ft | 502 kts | 124° |
| 2026-05-05 07:38 | 43.62020 | 26.09959 | 41066 ft | 501 kts | 124° |
| 2026-05-05 07:38 | 43.58279 | 26.18077 | 41067 ft | 502 kts | 124° |
| 2026-05-05 07:39 | 43.54550 | 26.26139 | 41064 ft | 501 kts | 124° |
| 2026-05-05 07:39 | 43.50811 | 26.34215 | 41068 ft | 502 kts | 124° |
| 2026-05-05 07:40 | 43.47075 | 26.42258 | 41068 ft | 502 kts | 124° |
| 2026-05-05 07:40 | 43.43326 | 26.50302 | 41063 ft | 502 kts | 124° |
| 2026-05-05 07:41 | 43.39557 | 26.58374 | 41065 ft | 502 kts | 124° |
| 2026-05-05 07:41 | 43.35789 | 26.66416 | 41063 ft | 501 kts | 125° |
| 2026-05-05 07:42 | 43.32031 | 26.74450 | 41065 ft | 501 kts | 124° |
| 2026-05-05 07:42 | 43.28257 | 26.82490 | 41060 ft | 502 kts | 125° |
| 2026-05-05 07:43 | 43.24473 | 26.90504 | 41068 ft | 502 kts | 124° |
| 2026-05-05 07:43 | 43.20696 | 26.98479 | 41066 ft | 502 kts | 125° |
| 2026-05-05 07:44 | 43.16909 | 27.06462 | 41064 ft | 503 kts | 125° |
| 2026-05-05 07:44 | 43.13084 | 27.14491 | 41065 ft | 503 kts | 125° |
| 2026-05-05 07:45 | 43.09261 | 27.22495 | 41067 ft | 503 kts | 125° |
| 2026-05-05 07:45 | 43.05444 | 27.30469 | 41067 ft | 503 kts | 125° |
| 2026-05-05 07:46 | 43.01627 | 27.38412 | 41068 ft | 503 kts | 126° |
| 2026-05-05 07:46 | 42.97442 | 27.46068 | 41069 ft | 500 kts | 132° |
| 2026-05-05 07:47 | 42.92839 | 27.53070 | 41068 ft | 497 kts | 135° |
| 2026-05-05 07:47 | 42.88188 | 27.59969 | 41055 ft | 495 kts | 135° |
| 2026-05-05 07:48 | 42.85863 | 27.63397 | 40803 ft | 493 kts | 135° |
| 2026-05-05 07:48 | 42.83535 | 27.66832 | 40482 ft | 490 kts | 136° |
| 2026-05-05 07:48 | 42.81251 | 27.70220 | 40087 ft | 486 kts | 136° |
| 2026-05-05 07:48 | 42.78994 | 27.73573 | 39592 ft | 483 kts | 136° |
| 2026-05-05 07:49 | 42.76735 | 27.76923 | 39039 ft | 482 kts | 136° |
| 2026-05-05 07:49 | 42.74474 | 27.80271 | 38461 ft | 480 kts | 136° |
| 2026-05-05 07:49 | 42.72205 | 27.83625 | 37871 ft | 480 kts | 136° |
| 2026-05-05 07:49 | 42.69975 | 27.86917 | 37278 ft | 474 kts | 136° |
| 2026-05-05 07:50 | 42.67772 | 27.90169 | 36682 ft | 468 kts | 136° |
| 2026-05-05 07:50 | 42.65571 | 27.93410 | 36047 ft | 464 kts | 136° |
| 2026-05-05 07:50 | 42.63397 | 27.96608 | 35417 ft | 461 kts | 136° |
| 2026-05-05 07:50 | 42.61235 | 27.99784 | 34773 ft | 459 kts | 136° |
| 2026-05-05 07:51 | 42.59108 | 28.02904 | 34117 ft | 458 kts | 136° |
| 2026-05-05 07:51 | 42.56955 | 28.06058 | 33448 ft | 457 kts | 136° |
| 2026-05-05 07:51 | 42.54786 | 28.09233 | 32786 ft | 457 kts | 136° |
| 2026-05-05 07:51 | 42.52647 | 28.12360 | 32114 ft | 456 kts | 136° |
| 2026-05-05 07:52 | 42.50488 | 28.15514 | 31426 ft | 456 kts | 136° |
| 2026-05-05 07:52 | 42.48352 | 28.18630 | 30735 ft | 455 kts | 136° |
| 2026-05-05 07:52 | 42.46220 | 28.21740 | 30279 ft | 450 kts | 136° |
| 2026-05-05 07:52 | 42.44080 | 28.24858 | 29866 ft | 448 kts | 135° |
| 2026-05-05 07:53 | 42.41991 | 28.27898 | 29337 ft | 446 kts | 135° |
| 2026-05-05 07:53 | 42.39869 | 28.30982 | 28859 ft | 442 kts | 135° |
| 2026-05-05 07:53 | 42.37795 | 28.33993 | 28326 ft | 439 kts | 135° |
| 2026-05-05 07:53 | 42.35738 | 28.36976 | 27834 ft | 436 kts | 135° |
| 2026-05-05 07:54 | 42.33667 | 28.39978 | 27374 ft | 431 kts | 135° |
| 2026-05-05 07:54 | 42.31657 | 28.42889 | 26940 ft | 427 kts | 135° |
| 2026-05-05 07:54 | 42.29639 | 28.45806 | 26507 ft | 422 kts | 135° |
| 2026-05-05 07:54 | 42.27641 | 28.48693 | 26080 ft | 418 kts | 135° |
| 2026-05-05 07:55 | 42.25676 | 28.51529 | 25660 ft | 413 kts | 135° |
| 2026-05-05 07:55 | 42.23729 | 28.54338 | 25242 ft | 409 kts | 135° |
| 2026-05-05 07:55 | 42.21803 | 28.57111 | 24829 ft | 405 kts | 134° |
| 2026-05-05 07:55 | 42.19891 | 28.59865 | 24411 ft | 401 kts | 134° |
| 2026-05-05 07:56 | 42.18006 | 28.62575 | 24004 ft | 398 kts | 134° |
| 2026-05-05 07:56 | 42.16119 | 28.65286 | 23717 ft | 393 kts | 135° |
| 2026-05-05 07:56 | 42.14265 | 28.67956 | 23557 ft | 392 kts | 135° |
| 2026-05-05 07:56 | 42.12409 | 28.70627 | 23397 ft | 391 kts | 135° |
| 2026-05-05 07:57 | 42.10553 | 28.73273 | 23240 ft | 388 kts | 137° |
| 2026-05-05 07:57 | 42.08411 | 28.75417 | 23017 ft | 375 kts | 154° |
| 2026-05-05 07:57 | 42.06016 | 28.76535 | 23000 ft | 367 kts | 169° |
| 2026-05-05 07:57 | 42.03496 | 28.76826 | 23032 ft | 369 kts | 177° |
| 2026-05-05 07:58 | 42.00914 | 28.76928 | 23049 ft | 370 kts | 178° |
| 2026-05-05 07:58 | 41.98332 | 28.77008 | 22863 ft | 371 kts | 178° |
| 2026-05-05 07:58 | 41.95795 | 28.77092 | 22408 ft | 369 kts | 177° |
| 2026-05-05 07:58 | 41.93240 | 28.77185 | 21983 ft | 366 kts | 177° |
| 2026-05-05 07:59 | 41.90718 | 28.77282 | 21570 ft | 363 kts | 177° |
| 2026-05-05 07:59 | 41.88208 | 28.77380 | 21163 ft | 360 kts | 176° |
| 2026-05-05 07:59 | 41.85705 | 28.77478 | 20756 ft | 357 kts | 176° |
| 2026-05-05 07:59 | 41.83245 | 28.77573 | 20483 ft | 349 kts | 176° |
| 2026-05-05 08:00 | 41.80888 | 28.77663 | 20397 ft | 337 kts | 176° |
| 2026-05-05 08:00 | 41.78576 | 28.77685 | 20286 ft | 327 kts | 184° |
| 2026-05-05 08:00 | 41.76437 | 28.76846 | 20171 ft | 322 kts | 205° |
| 2026-05-05 08:00 | 41.74673 | 28.74980 | 19837 ft | 327 kts | 226° |
| 2026-05-05 08:01 | 41.73298 | 28.72563 | 19511 ft | 327 kts | 231° |
| 2026-05-05 08:01 | 41.71998 | 28.70117 | 19184 ft | 326 kts | 231° |
| 2026-05-05 08:01 | 41.70690 | 28.67654 | 18858 ft | 324 kts | 231° |
| 2026-05-05 08:01 | 41.69369 | 28.65198 | 18536 ft | 322 kts | 231° |
| 2026-05-05 08:02 | 41.68061 | 28.62789 | 18221 ft | 320 kts | 230° |
| 2026-05-05 08:02 | 41.66747 | 28.60380 | 17907 ft | 319 kts | 230° |
| 2026-05-05 08:02 | 41.65444 | 28.57995 | 17595 ft | 317 kts | 230° |
| 2026-05-05 08:02 | 41.64149 | 28.55627 | 17287 ft | 316 kts | 231° |
| 2026-05-05 08:03 | 41.62984 | 28.53500 | 17013 ft | 315 kts | 231° |
| 2026-05-05 08:03 | 41.61685 | 28.51130 | 16707 ft | 314 kts | 231° |
| 2026-05-05 08:03 | 41.60391 | 28.48771 | 16402 ft | 313 kts | 231° |
| 2026-05-05 08:03 | 41.59116 | 28.46449 | 16105 ft | 311 kts | 231° |
| 2026-05-05 08:04 | 41.57841 | 28.44128 | 15807 ft | 310 kts | 231° |
| 2026-05-05 08:04 | 41.56560 | 28.41796 | 15508 ft | 309 kts | 231° |
| 2026-05-05 08:04 | 41.55307 | 28.39517 | 15217 ft | 308 kts | 231° |
| 2026-05-05 08:04 | 41.54035 | 28.37207 | 14924 ft | 308 kts | 231° |
| 2026-05-05 08:05 | 41.52760 | 28.34923 | 14632 ft | 306 kts | 230° |
| 2026-05-05 08:05 | 41.51492 | 28.32677 | 14345 ft | 305 kts | 230° |
| 2026-05-05 08:05 | 41.50205 | 28.30403 | 14057 ft | 304 kts | 230° |
| 2026-05-05 08:05 | 41.48938 | 28.28168 | 13774 ft | 302 kts | 230° |
| 2026-05-05 08:06 | 41.47671 | 28.25939 | 13492 ft | 301 kts | 230° |
| 2026-05-05 08:06 | 41.46417 | 28.23732 | 13211 ft | 300 kts | 230° |
| 2026-05-05 08:06 | 41.45157 | 28.21516 | 12931 ft | 299 kts | 230° |
| 2026-05-05 08:06 | 41.43914 | 28.19332 | 12657 ft | 297 kts | 230° |
| 2026-05-05 08:07 | 41.42659 | 28.17129 | 12380 ft | 296 kts | 230° |
| 2026-05-05 08:07 | 41.41415 | 28.14947 | 12107 ft | 295 kts | 230° |
| 2026-05-05 08:07 | 41.40188 | 28.12795 | 11836 ft | 294 kts | 230° |
| 2026-05-05 08:07 | 41.38784 | 28.10873 | 11528 ft | 289 kts | 209° |
| 2026-05-05 08:08 | 41.36960 | 28.09954 | 11247 ft | 280 kts | 182° |
| 2026-05-05 08:08 | 41.35024 | 28.09894 | 10987 ft | 276 kts | 175° |
| 2026-05-05 08:08 | 41.33123 | 28.09975 | 10722 ft | 275 kts | 174° |
| 2026-05-05 08:08 | 41.31220 | 28.10056 | 10459 ft | 274 kts | 174° |
| 2026-05-05 08:09 | 41.29370 | 28.10512 | 10110 ft | 269 kts | 150° |
| 2026-05-05 08:09 | 41.27786 | 28.11801 | 9759 ft | 269 kts | 141° |
| 2026-05-05 08:09 | 41.26283 | 28.13269 | 9371 ft | 272 kts | 140° |
| 2026-05-05 08:09 | 41.24740 | 28.14767 | 8965 ft | 275 kts | 141° |
| 2026-05-05 08:10 | 41.23175 | 28.16234 | 8618 ft | 276 kts | 142° |
| 2026-05-05 08:10 | 41.21604 | 28.17664 | 8312 ft | 275 kts | 142° |
| 2026-05-05 08:10 | 41.20014 | 28.19086 | 8028 ft | 273 kts | 143° |
| 2026-05-05 08:10 | 41.18441 | 28.20478 | 7748 ft | 271 kts | 143° |
| 2026-05-05 08:11 | 41.16882 | 28.21848 | 7484 ft | 269 kts | 143° |
| 2026-05-05 08:11 | 41.15313 | 28.23222 | 7221 ft | 268 kts | 143° |
| 2026-05-05 08:11 | 41.13770 | 28.24572 | 6962 ft | 267 kts | 144° |
| 2026-05-05 08:11 | 41.12219 | 28.25927 | 6699 ft | 266 kts | 144° |
| 2026-05-05 08:12 | 41.10693 | 28.27257 | 6448 ft | 265 kts | 144° |
| 2026-05-05 08:12 | 41.09141 | 28.28605 | 6206 ft | 264 kts | 144° |
| 2026-05-05 08:12 | 41.07625 | 28.29925 | 5972 ft | 262 kts | 144° |
| 2026-05-05 08:12 | 41.06108 | 28.31247 | 5725 ft | 261 kts | 144° |
| 2026-05-05 08:13 | 41.04597 | 28.32571 | 5482 ft | 260 kts | 148° |
| 2026-05-05 08:13 | 41.03109 | 28.33884 | 5242 ft | 258 kts | 149° |
| 2026-05-05 08:13 | 41.01608 | 28.35173 | 5125 ft | 250 kts | 149° |
| 2026-05-05 08:13 | 41.00195 | 28.36387 | 5098 ft | 238 kts | 149° |
| 2026-05-05 08:14 | 40.98837 | 28.37557 | 5060 ft | 228 kts | 148° |
| 2026-05-05 08:14 | 40.97562 | 28.38911 | 5048 ft | 241 kts | 132° |
| 2026-05-05 08:14 | 40.96601 | 28.40726 | 5048 ft | 243 kts | 121° |
| 2026-05-05 08:14 | 40.95782 | 28.42660 | 5039 ft | 241 kts | 120° |
| 2026-05-05 08:15 | 40.94970 | 28.44626 | 5036 ft | 242 kts | 119° |
| 2026-05-05 08:15 | 40.94161 | 28.46563 | 5034 ft | 243 kts | 119° |
| 2026-05-05 08:15 | 40.93330 | 28.48525 | 5034 ft | 242 kts | 120° |
| 2026-05-05 08:15 | 40.92501 | 28.50462 | 5033 ft | 242 kts | 120° |
| 2026-05-05 08:16 | 40.91668 | 28.52391 | 5033 ft | 242 kts | 120° |
| 2026-05-05 08:16 | 40.90828 | 28.54336 | 5034 ft | 242 kts | 120° |
| 2026-05-05 08:16 | 40.89992 | 28.56269 | 5033 ft | 242 kts | 120° |
| 2026-05-05 08:16 | 40.89305 | 28.58260 | 5012 ft | 242 kts | 99° |
| 2026-05-05 08:17 | 40.89452 | 28.60444 | 5058 ft | 237 kts | 72° |
| 2026-05-05 08:17 | 40.89983 | 28.62492 | 5053 ft | 233 kts | 68° |
| 2026-05-05 08:17 | 40.90544 | 28.64503 | 5041 ft | 231 kts | 68° |
| 2026-05-05 08:17 | 40.91092 | 28.66486 | 5035 ft | 233 kts | 69° |
| 2026-05-05 08:18 | 40.91719 | 28.68470 | 5026 ft | 232 kts | 57° |
| 2026-05-05 08:18 | 40.92862 | 28.69940 | 5039 ft | 229 kts | 32° |
| 2026-05-05 08:18 | 40.94236 | 28.70992 | 5051 ft | 229 kts | 27° |
| 2026-05-05 08:18 | 40.95622 | 28.71970 | 5041 ft | 227 kts | 26° |
| 2026-05-05 08:19 | 40.97024 | 28.72922 | 5034 ft | 227 kts | 21° |
| 2026-05-05 08:19 | 40.98560 | 28.73375 | 5030 ft | 223 kts | 2° |
| 2026-05-05 08:19 | 41.00082 | 28.73393 | 5012 ft | 215 kts | 356° |
| 2026-05-05 08:19 | 41.01528 | 28.73337 | 4986 ft | 197 kts | 355° |
| 2026-05-05 08:20 | 41.02855 | 28.73284 | 4782 ft | 191 kts | 356° |
| 2026-05-05 08:20 | 41.04165 | 28.73216 | 4546 ft | 186 kts | 1° |
| 2026-05-05 08:20 | 41.05447 | 28.73184 | 4305 ft | 181 kts | 1° |
| 2026-05-05 08:20 | 41.06682 | 28.73163 | 4077 ft | 172 kts | 1° |
| 2026-05-05 08:21 | 41.07841 | 28.73142 | 3866 ft | 164 kts | 1° |
| 2026-05-05 08:21 | 41.08954 | 28.73122 | 3659 ft | 157 kts | 0° |
| 2026-05-05 08:21 | 41.10033 | 28.73102 | 3459 ft | 150 kts | 0° |
| 2026-05-05 08:21 | 41.11051 | 28.73080 | 3269 ft | 144 kts | 1° |
| 2026-05-05 08:22 | 41.12041 | 28.73060 | 3098 ft | 142 kts | 1° |
| 2026-05-05 08:22 | 41.13024 | 28.73043 | 2925 ft | 142 kts | 359° |
| 2026-05-05 08:22 | 41.14013 | 28.73022 | 2742 ft | 142 kts | 359° |
| 2026-05-05 08:22 | 41.14994 | 28.72998 | 2555 ft | 141 kts | 1° |
| 2026-05-05 08:23 | 41.15981 | 28.72979 | 2364 ft | 141 kts | 0° |
| 2026-05-05 08:23 | 41.16949 | 28.72962 | 2174 ft | 140 kts | 359° |
| 2026-05-05 08:23 | 41.17925 | 28.72944 | 1980 ft | 140 kts | 359° |
| 2026-05-05 08:23 | 41.18894 | 28.72924 | 1789 ft | 140 kts | 359° |
| 2026-05-05 08:24 | 41.19866 | 28.72905 | 1599 ft | 139 kts | 360° |
| 2026-05-05 08:24 | 41.20828 | 28.72885 | 1418 ft | 140 kts | 360° |
| 2026-05-05 08:24 | 41.21819 | 28.72865 | 1234 ft | 144 kts | 360° |
| 2026-05-05 08:24 | 41.22815 | 28.72842 | 1032 ft | 142 kts | 359° |
| 2026-05-05 08:25 | 41.23797 | 28.72824 | 853 ft | 139 kts | 359° |
| 2026-05-05 08:25 | 41.24754 | 28.72799 | 667 ft | 137 kts | 359° |
| 2026-05-05 08:25 | 41.25680 | 28.72777 | 495 ft | 131 kts | 359° |
| 2026-05-05 08:25 | 41.26578 | 28.72756 | 340 ft | 118 kts | 360° |
| 2026-05-05 08:26 | 41.27211 | 28.72757 | 339 ft | 65 kts | 360° |
| 2026-05-05 08:26 | 41.27506 | 28.72752 | 339 ft | 30 kts | 359° |
| 2026-05-05 08:26 | 41.27737 | 28.72745 | 339 ft | 36 kts | 359° |
| 2026-05-05 08:26 | 41.27992 | 28.72788 | 339 ft | 35 kts | 19° |
| 2026-05-05 08:27 | 41.28117 | 28.72938 | 339 ft | 23 kts | 102° |
| 2026-05-05 08:27 | 41.27972 | 28.72981 | 339 ft | 24 kts | 186° |
| 2026-05-05 08:27 | 41.27798 | 28.72968 | 339 ft | 25 kts | 183° |
| 2026-05-05 08:27 | 41.27611 | 28.72976 | 339 ft | 27 kts | 178° |
| 2026-05-05 08:28 | 41.27414 | 28.72984 | 339 ft | 29 kts | 179° |
| 2026-05-05 08:28 | 41.27204 | 28.72985 | 339 ft | 31 kts | 180° |
| 2026-05-05 08:28 | 41.27025 | 28.72989 | 339 ft | 22 kts | 178° |
| 2026-05-05 08:28 | 41.26860 | 28.72996 | 339 ft | 24 kts | 178° |
| 2026-05-05 08:29 | 41.26726 | 28.73028 | 339 ft | 19 kts | 127° |
| 2026-05-05 08:29 | 41.26713 | 28.73213 | 339 ft | 21 kts | 89° |
| 2026-05-05 08:29 | 41.26693 | 28.73402 | 339 ft | 18 kts | 94° |
| 2026-05-05 08:30 | 41.26693 | 28.73450 | 339 ft | 0 kts | 90° |